createdAt,value
2023-05-11T00:00:22.565Z,1007.62
2023-05-11T00:01:22.539Z,1007.56
2023-05-11T00:02:22.549Z,1007.61
2023-05-11T00:03:22.676Z,1007.61
2023-05-11T00:04:22.548Z,1007.61
2023-05-11T00:05:22.510Z,1007.61
2023-05-11T00:06:22.474Z,1007.61
2023-05-11T00:07:22.482Z,1007.59
2023-05-11T00:08:22.451Z,1007.55
2023-05-11T00:09:22.505Z,1007.57
2023-05-11T00:10:22.434Z,1007.56
2023-05-11T00:11:22.417Z,1007.57
2023-05-11T00:12:22.395Z,1007.53
2023-05-11T00:13:22.401Z,1007.51
2023-05-11T00:14:22.423Z,1007.57
2023-05-11T00:15:22.365Z,1007.55
2023-05-11T00:16:22.410Z,1007.53
2023-05-11T00:17:22.352Z,1007.56
2023-05-11T00:18:22.393Z,1007.59
2023-05-11T00:19:22.369Z,1007.56
2023-05-11T00:20:22.309Z,1007.58
2023-05-11T00:21:22.294Z,1007.57
2023-05-11T00:22:22.269Z,1007.59
2023-05-11T00:23:22.313Z,1007.55
2023-05-11T00:24:22.254Z,1007.56
2023-05-11T00:25:22.259Z,1007.56
2023-05-11T00:26:22.252Z,1007.55
2023-05-11T00:27:22.228Z,1007.57
2023-05-11T00:28:22.236Z,1007.58
2023-05-11T00:29:22.199Z,1007.54
2023-05-11T00:30:22.195Z,1007.57
2023-05-11T00:31:22.239Z,1007.53
2023-05-11T00:32:22.291Z,1007.58
2023-05-11T00:33:22.189Z,1007.52
2023-05-11T00:34:22.142Z,1007.53
2023-05-11T00:35:22.156Z,1007.60
2023-05-11T00:36:22.115Z,1007.52
2023-05-11T00:37:22.147Z,1007.54
2023-05-11T00:38:22.080Z,1007.55
2023-05-11T00:39:22.102Z,1007.53
2023-05-11T00:40:22.078Z,1007.60
2023-05-11T00:41:22.078Z,1007.57
2023-05-11T00:42:22.089Z,1007.57
2023-05-11T00:43:22.046Z,1007.59
2023-05-11T00:44:22.020Z,1007.57
2023-05-11T00:45:22.042Z,1007.59
2023-05-11T00:46:22.074Z,1007.55
2023-05-11T00:47:22.032Z,1007.56
2023-05-11T00:48:21.994Z,1007.60
2023-05-11T00:49:21.962Z,1007.55
2023-05-11T00:50:21.955Z,1007.56
2023-05-11T00:51:21.973Z,1007.56
2023-05-11T00:52:21.961Z,1007.59
2023-05-11T00:53:21.931Z,1007.61
2023-05-11T00:54:21.922Z,1007.58
2023-05-11T00:55:21.928Z,1007.60
2023-05-11T00:56:21.931Z,1007.59
2023-05-11T00:57:21.893Z,1007.64
2023-05-11T00:58:21.882Z,1007.62
2023-05-11T00:59:21.858Z,1007.61
2023-05-11T01:00:21.868Z,1007.65
2023-05-11T01:01:21.995Z,1007.61
2023-05-11T01:02:21.883Z,1007.63
2023-05-11T01:03:21.832Z,1007.63
2023-05-11T01:04:21.789Z,1007.66
2023-05-11T01:05:21.839Z,1007.62
2023-05-11T01:06:21.825Z,1007.64
2023-05-11T01:07:21.798Z,1007.64
2023-05-11T01:08:21.769Z,1007.61
2023-05-11T01:09:21.774Z,1007.64
2023-05-11T01:10:21.793Z,1007.63
2023-05-11T01:11:21.781Z,1007.64
2023-05-11T01:12:21.739Z,1007.63
2023-05-11T01:13:21.714Z,1007.62
2023-05-11T01:14:21.711Z,1007.62
2023-05-11T01:15:21.771Z,1007.59
2023-05-11T01:16:21.697Z,1007.57
2023-05-11T01:17:21.653Z,1007.58
2023-05-11T01:18:21.672Z,1007.60
2023-05-11T01:19:21.661Z,1007.59
2023-05-11T01:20:21.660Z,1007.61
2023-05-11T01:21:21.624Z,1007.61
2023-05-11T01:22:21.601Z,1007.59
2023-05-11T01:23:21.594Z,1007.63
2023-05-11T01:24:21.650Z,1007.62
2023-05-11T01:25:21.599Z,1007.65
2023-05-11T01:26:21.562Z,1007.59
2023-05-11T01:27:21.567Z,1007.61
2023-05-11T01:28:21.550Z,1007.65
2023-05-11T01:29:21.570Z,1007.65
2023-05-11T01:30:21.529Z,1007.65
2023-05-11T01:31:21.533Z,1007.64
2023-05-11T01:32:21.521Z,1007.66
2023-05-11T01:33:21.505Z,1007.69
2023-05-11T01:34:21.547Z,1007.66
2023-05-11T01:35:21.472Z,1007.72
2023-05-11T01:36:21.455Z,1007.68
2023-05-11T01:37:21.447Z,1007.72
2023-05-11T01:38:21.471Z,1007.71
2023-05-11T01:39:21.447Z,1007.75
2023-05-11T01:40:21.440Z,1007.77
2023-05-11T01:41:21.408Z,1007.74
2023-05-11T01:42:21.390Z,1007.78
2023-05-11T01:43:21.415Z,1007.78
2023-05-11T01:44:21.364Z,1007.77
2023-05-11T01:45:21.356Z,1007.80
2023-05-11T01:46:21.341Z,1007.81
2023-05-11T01:47:21.309Z,1007.78
2023-05-11T01:48:21.346Z,1007.78
2023-05-11T01:49:21.302Z,1007.79
2023-05-11T01:50:21.394Z,1007.81
2023-05-11T01:51:21.305Z,1007.81
2023-05-11T01:52:21.328Z,1007.83
2023-05-11T01:53:21.286Z,1007.84
2023-05-11T01:54:21.263Z,1007.88
2023-05-11T01:55:21.242Z,1007.83
2023-05-11T01:56:21.209Z,1007.85
2023-05-11T01:57:21.251Z,1007.87
2023-05-11T01:58:21.188Z,1007.84
2023-05-11T01:59:21.209Z,1007.86
2023-05-11T02:00:21.309Z,1007.87
2023-05-11T02:01:21.194Z,1007.86
2023-05-11T02:02:21.221Z,1007.86
2023-05-11T02:03:21.204Z,1007.83
2023-05-11T02:04:21.143Z,1007.89
2023-05-11T02:05:21.137Z,1007.88
2023-05-11T02:06:21.151Z,1007.88
2023-05-11T02:07:21.149Z,1007.82
2023-05-11T02:08:21.081Z,1007.85
2023-05-11T02:09:21.079Z,1007.88
2023-05-11T02:10:21.252Z,1007.88
2023-05-11T02:11:21.091Z,1007.94
2023-05-11T02:12:21.059Z,1007.90
2023-05-11T02:13:21.032Z,1007.90
2023-05-11T02:14:21.039Z,1007.96
2023-05-11T02:15:20.996Z,1007.95
2023-05-11T02:16:21.057Z,1007.94
2023-05-11T02:17:20.972Z,1007.92
2023-05-11T02:18:21.051Z,1007.96
2023-05-11T02:19:20.950Z,1007.98
2023-05-11T02:20:21.098Z,1007.97
2023-05-11T02:21:20.987Z,1007.97
2023-05-11T02:22:20.912Z,1008.01
2023-05-11T02:23:20.907Z,1008.02
2023-05-11T02:24:20.898Z,1008.02
2023-05-11T02:25:20.919Z,1007.99
2023-05-11T02:26:20.905Z,1008.08
2023-05-11T02:27:20.891Z,1008.07
2023-05-11T02:28:20.871Z,1008.04
2023-05-11T02:29:20.845Z,1008.01
2023-05-11T02:30:21.033Z,1008.02
2023-05-11T02:31:20.838Z,1008.05
2023-05-11T02:32:20.828Z,1008.04
2023-05-11T02:33:20.813Z,1008.05
2023-05-11T02:34:20.928Z,1008.05
2023-05-11T02:35:20.825Z,1008.09
2023-05-11T02:36:20.773Z,1008.08
2023-05-11T02:37:20.764Z,1008.08
2023-05-11T02:38:20.759Z,1008.05
2023-05-11T02:39:20.761Z,1008.08
2023-05-11T02:40:20.978Z,1008.07
2023-05-11T02:41:20.722Z,1008.03
2023-05-11T02:42:20.727Z,1008.04
2023-05-11T02:43:20.686Z,1008.06
2023-05-11T02:44:20.718Z,1008.01
2023-05-11T02:45:20.660Z,1008.00
2023-05-11T02:46:20.676Z,1008.01
2023-05-11T02:47:20.676Z,1008.01
2023-05-11T02:48:20.687Z,1007.99
2023-05-11T02:49:20.670Z,1007.98
2023-05-11T02:50:20.795Z,1008.01
2023-05-11T02:51:20.606Z,1008.01
2023-05-11T02:52:20.586Z,1008.03
2023-05-11T02:53:20.576Z,1008.01
2023-05-11T02:54:20.567Z,1008.00
2023-05-11T02:55:20.563Z,1008.02
2023-05-11T02:56:20.557Z,1008.06
2023-05-11T02:57:20.555Z,1008.04
2023-05-11T02:58:20.642Z,1008.05
2023-05-11T02:59:20.493Z,1008.06
2023-05-11T03:00:21.004Z,1008.08
2023-05-11T03:01:20.590Z,1008.07
2023-05-11T03:02:20.590Z,1008.06
2023-05-11T03:03:20.580Z,1008.07
2023-05-11T03:04:20.465Z,1008.08
2023-05-11T03:05:20.447Z,1008.11
2023-05-11T03:06:20.421Z,1008.08
2023-05-11T03:07:20.446Z,1008.07
2023-05-11T03:08:20.431Z,1008.09
2023-05-11T03:09:20.404Z,1008.10
2023-05-11T03:10:20.719Z,1008.09
2023-05-11T03:11:20.354Z,1008.10
2023-05-11T03:12:20.378Z,1008.08
2023-05-11T03:13:20.365Z,1008.10
2023-05-11T03:14:20.354Z,1008.08
2023-05-11T03:15:20.339Z,1008.10
2023-05-11T03:16:21.293Z,1008.12
2023-05-11T03:17:20.333Z,1008.11
2023-05-11T03:18:20.335Z,1008.08
2023-05-11T03:19:20.285Z,1008.12
2023-05-11T03:20:20.436Z,1008.07
2023-05-11T03:21:20.323Z,1008.11
2023-05-11T03:22:20.271Z,1008.08
2023-05-11T03:23:20.225Z,1008.09
2023-05-11T03:24:20.238Z,1008.07
2023-05-11T03:25:20.235Z,1008.09
2023-05-11T03:26:20.235Z,1008.07
2023-05-11T03:27:20.189Z,1008.11
2023-05-11T03:28:20.179Z,1008.09
2023-05-11T03:29:20.176Z,1008.06
2023-05-11T03:30:20.397Z,1008.08
2023-05-11T03:31:20.194Z,1008.07
2023-05-11T03:32:20.204Z,1008.11
2023-05-11T03:33:20.131Z,1008.04
2023-05-11T03:34:20.139Z,1008.01
2023-05-11T03:35:20.146Z,1008.02
2023-05-11T03:36:20.126Z,1008.00
2023-05-11T03:37:20.085Z,1008.02
2023-05-11T03:38:20.073Z,1008.05
2023-05-11T03:39:20.033Z,1008.03
2023-05-11T03:40:20.262Z,1008.09
2023-05-11T03:41:20.028Z,1008.00
2023-05-11T03:42:20.013Z,1008.05
2023-05-11T03:43:20.028Z,1008.03
2023-05-11T03:44:20.008Z,1008.07
2023-05-11T03:45:20.027Z,1008.08
2023-05-11T03:46:20.045Z,1008.11
2023-05-11T03:47:19.985Z,1008.06
2023-05-11T03:48:19.956Z,1008.06
2023-05-11T03:49:19.934Z,1008.09
2023-05-11T03:50:19.993Z,1008.07
2023-05-11T03:51:19.914Z,1008.07
2023-05-11T03:52:19.935Z,1008.09
2023-05-11T03:53:19.913Z,1008.10
2023-05-11T03:54:19.927Z,1008.14
2023-05-11T03:55:19.890Z,1008.12
2023-05-11T03:56:19.872Z,1008.12
2023-05-11T03:57:19.853Z,1008.07
2023-05-11T03:58:19.850Z,1008.08
2023-05-11T03:59:19.865Z,1008.11
2023-05-11T04:00:20.039Z,1008.06
2023-05-11T04:01:19.820Z,1008.11
2023-05-11T04:02:19.871Z,1008.03
2023-05-11T04:03:19.963Z,1008.05
2023-05-11T04:04:19.865Z,1008.04
2023-05-11T04:05:19.761Z,1008.05
2023-05-11T04:06:19.752Z,1007.98
2023-05-11T04:07:19.738Z,1008.04
2023-05-11T04:08:19.714Z,1008.04
2023-05-11T04:09:19.747Z,1008.03
2023-05-11T04:10:19.940Z,1008.06
2023-05-11T04:11:19.691Z,1008.09
2023-05-11T04:12:19.678Z,1008.06
2023-05-11T04:13:19.694Z,1008.11
2023-05-11T04:14:19.705Z,1008.04
2023-05-11T04:15:19.661Z,1008.07
2023-05-11T04:16:19.651Z,1008.03
2023-05-11T04:17:19.625Z,1008.03
2023-05-11T04:18:19.648Z,1008.07
2023-05-11T04:19:19.588Z,1008.07
2023-05-11T04:20:19.885Z,1008.07
2023-05-11T04:21:19.585Z,1008.05
2023-05-11T04:22:19.578Z,1008.05
2023-05-11T04:23:19.601Z,1008.10
2023-05-11T04:24:19.556Z,1008.09
2023-05-11T04:25:19.547Z,1008.01
2023-05-11T04:26:19.530Z,1008.06
2023-05-11T04:27:19.559Z,1008.07
2023-05-11T04:28:19.536Z,1008.10
2023-05-11T04:29:19.500Z,1008.12
2023-05-11T04:30:19.744Z,1008.11
2023-05-11T04:31:19.509Z,1008.11
2023-05-11T04:32:19.504Z,1008.11
2023-05-11T04:33:19.484Z,1008.09
2023-05-11T04:34:19.466Z,1008.09
2023-05-11T04:35:19.406Z,1008.07
2023-05-11T04:36:19.405Z,1008.08
2023-05-11T04:37:19.415Z,1008.12
2023-05-11T04:38:19.393Z,1008.11
2023-05-11T04:39:19.357Z,1008.14
2023-05-11T04:40:19.458Z,1008.10
2023-05-11T04:41:19.333Z,1008.14
2023-05-11T04:42:19.385Z,1008.13
2023-05-11T04:43:19.303Z,1008.15
2023-05-11T04:44:19.336Z,1008.11
2023-05-11T04:45:19.293Z,1008.13
2023-05-11T04:46:19.405Z,1008.08
2023-05-11T04:47:19.302Z,1008.17
2023-05-11T04:48:20.879Z,1008.15
2023-05-11T04:49:19.250Z,1008.17
2023-05-11T04:50:19.472Z,1008.17
2023-05-11T04:51:19.264Z,1008.22
2023-05-11T04:52:19.231Z,1008.21
2023-05-11T04:53:19.214Z,1008.21
2023-05-11T04:54:19.219Z,1008.27
2023-05-11T04:55:19.191Z,1008.25
2023-05-11T04:56:19.215Z,1008.25
2023-05-11T04:57:19.163Z,1008.25
2023-05-11T04:58:19.174Z,1008.25
2023-05-11T04:59:19.134Z,1008.25
2023-05-11T05:00:19.482Z,1008.25
2023-05-11T05:01:19.175Z,1008.26
2023-05-11T05:02:19.167Z,1008.28
2023-05-11T05:03:19.137Z,1008.31
2023-05-11T05:04:19.286Z,1008.30
2023-05-11T05:05:19.123Z,1008.29
2023-05-11T05:06:19.080Z,1008.29
2023-05-11T05:07:19.063Z,1008.31
2023-05-11T05:08:19.027Z,1008.30
2023-05-11T05:09:19.013Z,1008.34
2023-05-11T05:10:19.318Z,1008.36
2023-05-11T05:11:19.004Z,1008.32
2023-05-11T05:12:19.011Z,1008.35
2023-05-11T05:13:18.982Z,1008.32
2023-05-11T05:14:19.002Z,1008.38
2023-05-11T05:15:18.993Z,1008.28
2023-05-11T05:16:18.979Z,1008.30
2023-05-11T05:17:18.949Z,1008.30
2023-05-11T05:18:18.997Z,1008.32
2023-05-11T05:19:18.943Z,1008.30
2023-05-11T05:20:19.246Z,1008.31
2023-05-11T05:21:18.919Z,1008.32
2023-05-11T05:22:18.874Z,1008.35
2023-05-11T05:23:18.872Z,1008.29
2023-05-11T05:24:18.920Z,1008.31
2023-05-11T05:25:18.840Z,1008.31
2023-05-11T05:26:18.859Z,1008.32
2023-05-11T05:27:18.833Z,1008.29
2023-05-11T05:28:18.809Z,1008.30
2023-05-11T05:29:18.868Z,1008.33
2023-05-11T05:30:18.974Z,1008.34
2023-05-11T05:31:18.847Z,1008.37
2023-05-11T05:32:18.785Z,1008.34
2023-05-11T05:33:18.799Z,1008.35
2023-05-11T05:34:18.788Z,1008.36
2023-05-11T05:35:18.748Z,1008.42
2023-05-11T05:36:18.725Z,1008.39
2023-05-11T05:37:18.716Z,1008.43
2023-05-11T05:38:18.742Z,1008.44
2023-05-11T05:39:18.716Z,1008.37
2023-05-11T05:40:18.898Z,1008.39
2023-05-11T05:41:18.691Z,1008.37
2023-05-11T05:42:18.655Z,1008.44
2023-05-11T05:43:18.681Z,1008.39
2023-05-11T05:44:18.624Z,1008.39
2023-05-11T05:45:18.628Z,1008.36
2023-05-11T05:46:18.667Z,1008.41
2023-05-11T05:47:18.645Z,1008.42
2023-05-11T05:48:18.624Z,1008.42
2023-05-11T05:49:18.563Z,1008.49
2023-05-11T05:50:18.693Z,1008.48
2023-05-11T05:51:18.557Z,1008.46
2023-05-11T05:52:18.598Z,1008.45
2023-05-11T05:53:18.549Z,1008.47
2023-05-11T05:54:18.541Z,1008.45
2023-05-11T05:55:18.537Z,1008.51
2023-05-11T05:56:18.531Z,1008.52
2023-05-11T05:57:18.525Z,1008.54
2023-05-11T05:58:18.478Z,1008.55
2023-05-11T05:59:18.454Z,1008.53
2023-05-11T06:00:18.765Z,1008.56
2023-05-11T06:01:18.488Z,1008.56
2023-05-11T06:02:18.488Z,1008.60
2023-05-11T06:03:18.557Z,1008.60
2023-05-11T06:04:18.555Z,1008.56
2023-05-11T06:05:18.439Z,1008.60
2023-05-11T06:06:18.412Z,1008.61
2023-05-11T06:07:18.454Z,1008.60
2023-05-11T06:08:18.374Z,1008.63
2023-05-11T06:09:18.349Z,1008.63
2023-05-11T06:10:18.600Z,1008.64
2023-05-11T06:11:18.342Z,1008.62
2023-05-11T06:12:18.327Z,1008.64
2023-05-11T06:13:18.288Z,1008.62
2023-05-11T06:14:18.298Z,1008.65
2023-05-11T06:15:18.339Z,1008.62
2023-05-11T06:16:18.302Z,1008.55
2023-05-11T06:17:18.296Z,1008.59
2023-05-11T06:18:18.291Z,1008.63
2023-05-11T06:19:18.241Z,1008.59
2023-05-11T06:20:18.628Z,1008.62
2023-05-11T06:21:18.230Z,1008.64
2023-05-11T06:22:18.212Z,1008.60
2023-05-11T06:23:18.209Z,1008.66
2023-05-11T06:24:18.192Z,1008.63
2023-05-11T06:25:18.219Z,1008.59
2023-05-11T06:26:18.142Z,1008.61
2023-05-11T06:27:18.456Z,1008.59
2023-05-11T06:28:18.131Z,1008.64
2023-05-11T06:29:18.166Z,1008.66
2023-05-11T06:30:18.385Z,1008.64
2023-05-11T06:31:18.163Z,1008.64
2023-05-11T06:32:18.082Z,1008.64
2023-05-11T06:33:18.096Z,1008.66
2023-05-11T06:34:18.111Z,1008.64
2023-05-11T06:35:18.056Z,1008.60
2023-05-11T06:36:18.043Z,1008.63
2023-05-11T06:37:18.036Z,1008.59
2023-05-11T06:38:18.034Z,1008.61
2023-05-11T06:39:18.054Z,1008.62
2023-05-11T06:40:18.148Z,1008.63
2023-05-11T06:41:17.986Z,1008.62
2023-05-11T06:42:18.020Z,1008.56
2023-05-11T06:43:18.014Z,1008.61
2023-05-11T06:44:17.993Z,1008.58
2023-05-11T06:45:18.007Z,1008.59
2023-05-11T06:46:18.099Z,1008.52
2023-05-11T06:47:17.939Z,1008.59
2023-05-11T06:48:17.989Z,1008.48
2023-05-11T06:49:17.904Z,1008.52
2023-05-11T06:50:20.203Z,1008.58
2023-05-11T06:51:17.898Z,1008.55
2023-05-11T06:52:17.859Z,1008.54
2023-05-11T06:53:17.962Z,1008.57
2023-05-11T06:54:17.841Z,1008.54
2023-05-11T06:55:17.836Z,1008.53
2023-05-11T06:56:17.836Z,1008.48
2023-05-11T06:57:17.879Z,1008.57
2023-05-11T06:58:17.847Z,1008.54
2023-05-11T06:59:17.798Z,1008.53
2023-05-11T07:00:18.031Z,1008.50
2023-05-11T07:01:17.789Z,1008.52
2023-05-11T07:02:17.801Z,1008.54
2023-05-11T07:03:17.834Z,1008.55
2023-05-11T07:04:17.767Z,1008.56
2023-05-11T07:05:17.725Z,1008.51
2023-05-11T07:06:17.734Z,1008.54
2023-05-11T07:07:17.744Z,1008.54
2023-05-11T07:08:17.733Z,1008.52
2023-05-11T07:09:17.682Z,1008.50
2023-05-11T07:10:17.798Z,1008.53
2023-05-11T07:11:17.718Z,1008.56
2023-05-11T07:12:17.681Z,1008.48
2023-05-11T07:13:17.636Z,1008.49
2023-05-11T07:14:17.629Z,1008.57
2023-05-11T07:15:17.617Z,1008.47
2023-05-11T07:16:17.665Z,1008.55
2023-05-11T07:17:17.595Z,1008.51
2023-05-11T07:18:17.649Z,1008.49
2023-05-11T07:19:17.544Z,1008.55
2023-05-11T07:20:17.808Z,1008.48
2023-05-11T07:21:17.595Z,1008.54
2023-05-11T07:22:17.540Z,1008.50
2023-05-11T07:23:17.530Z,1008.51
2023-05-11T07:24:17.530Z,1008.56
2023-05-11T07:25:17.501Z,1008.54
2023-05-11T07:26:17.544Z,1008.55
2023-05-11T07:27:17.495Z,1008.47
2023-05-11T07:28:17.465Z,1008.52
2023-05-11T07:29:17.482Z,1008.49
2023-05-11T07:30:18.665Z,1008.49
2023-05-11T07:31:17.477Z,1008.50
2023-05-11T07:32:17.422Z,1008.53
2023-05-11T07:33:17.436Z,1008.45
2023-05-11T07:34:17.408Z,1008.49
2023-05-11T07:35:17.440Z,1008.48
2023-05-11T07:36:17.365Z,1008.52
2023-05-11T07:37:17.373Z,1008.52
2023-05-11T07:38:17.364Z,1008.49
2023-05-11T07:39:17.424Z,1008.47
2023-05-11T07:40:17.709Z,1008.54
2023-05-11T07:41:17.347Z,1008.57
2023-05-11T07:42:17.286Z,1008.59
2023-05-11T07:43:17.313Z,1008.55
2023-05-11T07:44:17.317Z,1008.56
2023-05-11T07:45:18.124Z,1008.56
2023-05-11T07:46:17.286Z,1008.56
2023-05-11T07:47:17.251Z,1008.54
2023-05-11T07:48:17.257Z,1008.56
2023-05-11T07:49:22.899Z,1008.60
2023-05-11T07:50:18.548Z,1008.55
2023-05-11T07:51:17.234Z,1008.56
2023-05-11T07:52:17.186Z,1008.60
2023-05-11T07:53:17.261Z,1008.58
2023-05-11T07:54:18.834Z,1008.57
2023-05-11T07:55:17.374Z,1008.60
2023-05-11T07:56:17.153Z,1008.66
2023-05-11T07:57:17.164Z,1008.64
2023-05-11T07:58:17.170Z,1008.55
2023-05-11T07:59:17.139Z,1008.58
2023-05-11T08:00:17.487Z,1008.66
2023-05-11T08:01:17.116Z,1008.60
2023-05-11T08:02:17.152Z,1008.61
2023-05-11T08:03:17.166Z,1008.64
2023-05-11T08:04:17.085Z,1008.60
2023-05-11T08:05:17.149Z,1008.65
2023-05-11T08:06:17.151Z,1008.66
2023-05-11T08:07:17.057Z,1008.66
2023-05-11T08:08:17.059Z,1008.66
2023-05-11T08:09:17.020Z,1008.67
2023-05-11T08:10:17.012Z,1008.66
2023-05-11T08:11:17.016Z,1008.67
2023-05-11T08:12:17.030Z,1008.60
2023-05-11T08:13:17.331Z,1008.64
2023-05-11T08:14:16.947Z,1008.71
2023-05-11T08:15:17.296Z,1008.70
2023-05-11T08:16:17.039Z,1008.66
2023-05-11T08:17:16.997Z,1008.65
2023-05-11T08:18:16.908Z,1008.63
2023-05-11T08:19:16.934Z,1008.66
2023-05-11T08:20:16.927Z,1008.62
2023-05-11T08:21:16.933Z,1008.64
2023-05-11T08:22:16.912Z,1008.61
2023-05-11T08:23:16.913Z,1008.65
2023-05-11T08:24:16.898Z,1008.65
2023-05-11T08:25:17.000Z,1008.66
2023-05-11T08:26:16.868Z,1008.64
2023-05-11T08:27:16.861Z,1008.64
2023-05-11T08:28:16.833Z,1008.63
2023-05-11T08:29:16.796Z,1008.64
2023-05-11T08:30:16.828Z,1008.69
2023-05-11T08:31:16.875Z,1008.63
2023-05-11T08:32:16.840Z,1008.63
2023-05-11T08:33:35.775Z,1008.67
2023-05-11T08:34:20.216Z,1008.74
2023-05-11T08:35:17.055Z,1008.72
2023-05-11T08:36:16.748Z,1008.63
2023-05-11T08:37:16.708Z,1008.66
2023-05-11T08:38:16.695Z,1008.67
2023-05-11T08:39:28.362Z,1008.63
2023-05-11T08:40:17.727Z,1008.65
2023-05-11T08:41:16.660Z,1008.65
2023-05-11T08:42:16.674Z,1008.66
2023-05-11T08:43:16.682Z,1008.54
2023-05-11T08:44:16.711Z,1008.61
2023-05-11T08:45:17.057Z,1008.66
2023-05-11T08:46:16.656Z,1008.67
2023-05-11T08:47:23.407Z,1008.62
2023-05-11T08:48:17.600Z,1008.72
2023-05-11T08:49:16.621Z,1008.65
2023-05-11T08:50:16.626Z,1008.70
2023-05-11T08:51:16.561Z,1008.66
2023-05-11T08:52:16.587Z,1008.70
2023-05-11T08:53:16.549Z,1008.66
2023-05-11T08:54:16.599Z,1008.67
2023-05-11T08:55:16.908Z,1008.62
2023-05-11T08:56:16.494Z,1008.68
2023-05-11T08:57:16.514Z,1008.65
2023-05-11T08:58:16.492Z,1008.70
2023-05-11T08:59:16.513Z,1008.66
2023-05-11T09:00:16.474Z,1008.67
2023-05-11T09:01:16.522Z,1008.74
2023-05-11T09:02:16.449Z,1008.66
2023-05-11T09:03:16.443Z,1008.72
2023-05-11T09:04:16.483Z,1008.62
2023-05-11T09:05:16.550Z,1008.65
2023-05-11T09:06:16.396Z,1008.63
2023-05-11T09:07:16.405Z,1008.59
2023-05-11T09:08:16.445Z,1008.63
2023-05-11T09:09:16.403Z,1008.69
2023-05-11T09:10:16.364Z,1008.65
2023-05-11T09:11:16.342Z,1008.61
2023-05-11T09:12:16.322Z,1008.62
2023-05-11T09:13:16.393Z,1008.61
2023-05-11T09:14:16.301Z,1008.63
2023-05-11T09:15:16.293Z,1008.63
2023-05-11T09:16:35.773Z,1008.60
2023-05-11T09:17:17.278Z,1008.60
2023-05-11T09:18:16.306Z,1008.48
2023-05-11T09:19:16.462Z,1008.60
2023-05-11T09:20:16.563Z,1008.61
2023-05-11T09:21:16.234Z,1008.55
2023-05-11T09:22:16.266Z,1008.58
2023-05-11T09:23:16.268Z,1008.58
2023-05-11T09:24:16.207Z,1008.60
2023-05-11T09:25:16.355Z,1008.59
2023-05-11T09:26:16.233Z,1008.57
2023-05-11T09:27:21.330Z,1008.46
2023-05-11T09:28:24.884Z,1008.56
2023-05-11T09:29:17.147Z,1008.60
2023-05-11T09:30:22.270Z,1008.58
2023-05-11T09:31:17.169Z,1008.59
2023-05-11T09:32:16.170Z,1008.51
2023-05-11T09:33:16.118Z,1008.59
2023-05-11T09:34:16.093Z,1008.55
2023-05-11T09:35:16.135Z,1008.54
2023-05-11T09:36:16.122Z,1008.52
2023-05-11T09:37:16.122Z,1008.51
2023-05-11T09:38:16.037Z,1008.56
2023-05-11T09:39:35.022Z,1008.60
2023-05-11T09:40:27.029Z,1008.45
2023-05-11T09:41:17.084Z,1008.46
2023-05-11T09:42:16.010Z,1008.58
2023-05-11T09:43:16.019Z,1008.41
2023-05-11T09:44:16.023Z,1008.59
2023-05-11T09:45:16.089Z,1008.54
2023-05-11T09:46:16.133Z,1008.52
2023-05-11T09:47:16.655Z,1008.53
2023-05-11T09:48:16.007Z,1008.61
2023-05-11T09:49:16.000Z,1008.56
2023-05-11T09:50:15.973Z,1008.54
2023-05-11T09:51:15.945Z,1008.49
2023-05-11T09:52:15.903Z,1008.60
2023-05-11T09:53:15.946Z,1008.60
2023-05-11T09:54:15.934Z,1008.50
2023-05-11T09:55:16.197Z,1008.53
2023-05-11T09:56:15.932Z,1008.50
2023-05-11T09:57:15.865Z,1008.41
2023-05-11T09:58:15.861Z,1008.44
2023-05-11T09:59:15.905Z,1008.64
2023-05-11T10:00:15.899Z,1008.46
2023-05-11T10:01:15.846Z,1008.63
2023-05-11T10:02:18.172Z,1008.46
2023-05-11T10:03:15.848Z,1008.40
2023-05-11T10:05:16.970Z,1008.42
2023-05-11T10:06:16.490Z,1008.36
2023-05-11T10:07:15.741Z,1008.32
2023-05-11T10:08:15.770Z,1008.42
2023-05-11T10:09:15.816Z,1008.34
2023-05-11T10:10:15.798Z,1008.34
2023-05-11T10:11:15.749Z,1008.36
2023-05-11T10:12:15.702Z,1008.41
2023-05-11T10:13:15.713Z,1008.39
2023-05-11T10:14:15.717Z,1008.37
2023-05-11T10:15:15.672Z,1008.37
2023-05-11T10:16:15.692Z,1008.34
2023-05-11T10:17:15.634Z,1008.38
2023-05-11T10:18:16.494Z,1008.38
2023-05-11T10:19:15.733Z,1008.36
2023-05-11T10:20:15.674Z,1008.37
2023-05-11T10:21:15.622Z,1008.36
2023-05-11T10:22:15.622Z,1008.32
2023-05-11T10:23:15.705Z,1008.37
2023-05-11T10:24:16.341Z,1008.34
2023-05-11T10:25:15.576Z,1008.37
2023-05-11T10:26:15.565Z,1008.30
2023-05-11T10:27:15.568Z,1008.32
2023-05-11T10:28:15.579Z,1008.29
2023-05-11T10:29:15.518Z,1008.27
2023-05-11T10:30:15.582Z,1008.28
2023-05-11T10:31:15.514Z,1008.28
2023-05-11T10:32:15.528Z,1008.26
2023-05-11T10:33:15.524Z,1008.17
2023-05-11T10:34:15.501Z,1008.29
2023-05-11T10:35:15.467Z,1008.32
2023-05-11T10:36:19.222Z,1008.30
2023-05-11T10:37:15.522Z,1008.32
2023-05-11T10:38:15.470Z,1008.30
2023-05-11T10:39:15.444Z,1008.31
2023-05-11T10:40:15.516Z,1008.28
2023-05-11T10:41:15.395Z,1008.25
2023-05-11T10:42:15.426Z,1008.26
2023-05-11T10:43:15.370Z,1008.26
2023-05-11T10:44:15.364Z,1008.35
2023-05-11T10:45:15.371Z,1008.35
2023-05-11T10:46:15.390Z,1008.30
2023-05-11T10:47:15.386Z,1008.27
2023-05-11T10:48:15.325Z,1008.30
2023-05-11T10:49:15.291Z,1008.31
2023-05-11T10:50:15.365Z,1008.33
2023-05-11T10:51:15.327Z,1008.36
2023-05-11T10:52:15.305Z,1008.36
2023-05-11T10:53:15.270Z,1008.29
2023-05-11T10:54:15.334Z,1008.34
2023-05-11T10:55:15.389Z,1008.36
2023-05-11T10:56:15.260Z,1008.27
2023-05-11T10:57:15.237Z,1008.30
2023-05-11T10:58:15.230Z,1008.31
2023-05-11T10:59:15.202Z,1008.32
2023-05-11T11:00:15.316Z,1008.26
2023-05-11T11:01:15.300Z,1008.28
2023-05-11T11:02:15.174Z,1008.28
2023-05-11T11:03:15.162Z,1008.26
2023-05-11T11:04:15.197Z,1008.30
2023-05-11T11:05:15.257Z,1008.29
2023-05-11T11:06:15.165Z,1008.27
2023-05-11T11:07:15.120Z,1008.34
2023-05-11T11:08:15.133Z,1008.38
2023-05-11T11:09:15.112Z,1008.34
2023-05-11T11:10:15.109Z,1008.33
2023-05-11T11:11:15.073Z,1008.32
2023-05-11T11:12:15.059Z,1008.38
2023-05-11T11:13:15.108Z,1008.40
2023-05-11T11:14:15.112Z,1008.38
2023-05-11T11:15:15.113Z,1008.35
2023-05-11T11:16:16.656Z,1008.39
2023-05-11T11:17:15.193Z,1008.41
2023-05-11T11:18:15.034Z,1008.38
2023-05-11T11:19:15.030Z,1008.46
2023-05-11T11:20:15.000Z,1008.46
2023-05-11T11:21:14.973Z,1008.51
2023-05-11T11:22:14.977Z,1008.47
2023-05-11T11:23:14.964Z,1008.47
2023-05-11T11:24:14.993Z,1008.44
2023-05-11T11:25:14.921Z,1008.44
2023-05-11T11:26:14.934Z,1008.42
2023-05-11T11:27:14.913Z,1008.41
2023-05-11T11:28:14.915Z,1008.43
2023-05-11T11:29:14.901Z,1008.48
2023-05-11T11:30:14.935Z,1008.46
2023-05-11T11:31:14.878Z,1008.51
2023-05-11T11:32:14.863Z,1008.45
2023-05-11T11:33:14.965Z,1008.44
2023-05-11T11:34:14.851Z,1008.47
2023-05-11T11:35:14.814Z,1008.52
2023-05-11T11:36:14.807Z,1008.51
2023-05-11T11:37:14.803Z,1008.51
2023-05-11T11:38:14.810Z,1008.56
2023-05-11T11:39:14.802Z,1008.58
2023-05-11T11:40:15.854Z,1008.58
2023-05-11T11:41:14.731Z,1008.59
2023-05-11T11:42:14.763Z,1008.61
2023-05-11T11:43:14.752Z,1008.56
2023-05-11T11:44:14.759Z,1008.55
2023-05-11T11:45:14.715Z,1008.55
2023-05-11T11:46:14.714Z,1008.56
2023-05-11T11:47:14.733Z,1008.49
2023-05-11T11:48:14.754Z,1008.48
2023-05-11T11:49:14.692Z,1008.59
2023-05-11T11:50:14.673Z,1008.58
2023-05-11T11:51:14.619Z,1008.65
2023-05-11T11:52:14.692Z,1008.65
2023-05-11T11:53:14.608Z,1008.53
2023-05-11T11:54:14.638Z,1008.60
2023-05-11T11:55:14.616Z,1008.56
2023-05-11T11:56:14.609Z,1008.68
2023-05-11T11:57:14.646Z,1008.58
2023-05-11T11:58:14.549Z,1008.55
2023-05-11T11:59:14.552Z,1008.52
2023-05-11T12:00:14.570Z,1008.50
2023-05-11T12:01:14.535Z,1008.48
2023-05-11T12:02:14.547Z,1008.45
2023-05-11T12:03:14.552Z,1008.50
2023-05-11T12:04:14.756Z,1008.46
2023-05-11T12:05:14.686Z,1008.40
2023-05-11T12:06:14.521Z,1008.46